sensor_id;sensor_type;location;lat;lon;timestamp;temperature;humidity
12981;DHT22;6555;50.468;8.480;2022-11-20T00:01:46;3.60;60.10
12981;DHT22;6555;50.468;8.480;2022-11-20T00:06:49;3.60;60.00
12981;DHT22;6555;50.468;8.480;2022-11-20T00:11:52;3.50;60.10
12981;DHT22;6555;50.468;8.480;2022-11-20T00:16:56;3.50;60.20
12981;DHT22;6555;50.468;8.480;2022-11-20T00:21:59;3.50;60.00
12981;DHT22;6555;50.468;8.480;2022-11-20T00:27:02;3.40;59.90
12981;DHT22;6555;50.468;8.480;2022-11-20T00:32:07;3.40;60.00
12981;DHT22;6555;50.468;8.480;2022-11-20T00:37:10;3.40;59.80
12981;DHT22;6555;50.468;8.480;2022-11-20T00:42:13;3.40;59.90
12981;DHT22;6555;50.468;8.480;2022-11-20T00:47:17;3.40;60.00
12981;DHT22;6555;50.468;8.480;2022-11-20T00:52:20;3.40;59.90
12981;DHT22;6555;50.468;8.480;2022-11-20T00:57:23;3.30;59.90
12981;DHT22;6555;50.468;8.480;2022-11-20T01:02:27;3.30;60.10
12981;DHT22;6555;50.468;8.480;2022-11-20T01:07:32;3.30;60.10
12981;DHT22;6555;50.468;8.480;2022-11-20T01:12:35;3.30;60.10
12981;DHT22;6555;50.468;8.480;2022-11-20T01:17:39;3.40;60.20
12981;DHT22;6555;50.468;8.480;2022-11-20T01:22:42;3.30;60.20
12981;DHT22;6555;50.468;8.480;2022-11-20T01:27:45;3.40;60.80
12981;DHT22;6555;50.468;8.480;2022-11-20T01:32:49;3.40;60.00
12981;DHT22;6555;50.468;8.480;2022-11-20T01:37:52;3.40;59.90
12981;DHT22;6555;50.468;8.480;2022-11-20T01:43:12;3.30;60.00
12981;DHT22;6555;50.468;8.480;2022-11-20T01:48:32;3.30;60.00
12981;DHT22;6555;50.468;8.480;2022-11-20T01:53:36;3.30;60.30
12981;DHT22;6555;50.468;8.480;2022-11-20T01:58:43;3.40;60.20
12981;DHT22;6555;50.468;8.480;2022-11-20T02:03:50;3.40;60.00
12981;DHT22;6555;50.468;8.480;2022-11-20T02:08:54;3.30;60.10
12981;DHT22;6555;50.468;8.480;2022-11-20T02:13:57;3.30;60.20
12981;DHT22;6555;50.468;8.480;2022-11-20T02:19:06;3.40;60.10
12981;DHT22;6555;50.468;8.480;2022-11-20T02:24:12;3.40;60.00
12981;DHT22;6555;50.468;8.480;2022-11-20T02:29:19;3.40;59.90
12981;DHT22;6555;50.468;8.480;2022-11-20T02:34:25;3.30;60.00
12981;DHT22;6555;50.468;8.480;2022-11-20T02:39:30;3.30;59.90
12981;DHT22;6555;50.468;8.480;2022-11-20T02:44:33;3.20;59.80
12981;DHT22;6555;50.468;8.480;2022-11-20T02:49:36;3.20;59.90
12981;DHT22;6555;50.468;8.480;2022-11-20T02:54:41;3.20;60.00
12981;DHT22;6555;50.468;8.480;2022-11-20T02:59:44;3.20;60.00
12981;DHT22;6555;50.468;8.480;2022-11-20T03:04:46;3.20;60.20
12981;DHT22;6555;50.468;8.480;2022-11-20T03:09:51;3.30;60.40
12981;DHT22;6555;50.468;8.480;2022-11-20T03:14:54;3.30;60.40
12981;DHT22;6555;50.468;8.480;2022-11-20T03:19:57;3.40;60.30
12981;DHT22;6555;50.468;8.480;2022-11-20T03:25:02;3.40;60.20
12981;DHT22;6555;50.468;8.480;2022-11-20T03:30:06;3.30;60.30
12981;DHT22;6555;50.468;8.480;2022-11-20T03:35:09;3.40;59.80
12981;DHT22;6555;50.468;8.480;2022-11-20T03:40:14;3.30;59.80
12981;DHT22;6555;50.468;8.480;2022-11-20T03:45:17;3.20;59.90
12981;DHT22;6555;50.468;8.480;2022-11-20T03:50:21;3.20;60.10
12981;DHT22;6555;50.468;8.480;2022-11-20T03:55:25;3.20;60.40
12981;DHT22;6555;50.468;8.480;2022-11-20T04:00:28;3.20;60.30
12981;DHT22;6555;50.468;8.480;2022-11-20T04:05:32;3.30;60.60
12981;DHT22;6555;50.468;8.480;2022-11-20T04:10:37;3.30;60.50
12981;DHT22;6555;50.468;8.480;2022-11-20T04:15:40;3.30;60.30
12981;DHT22;6555;50.468;8.480;2022-11-20T04:20:43;3.30;60.20
12981;DHT22;6555;50.468;8.480;2022-11-20T04:25:47;3.20;60.30
12981;DHT22;6555;50.468;8.480;2022-11-20T04:30:50;3.30;60.50
12981;DHT22;6555;50.468;8.480;2022-11-20T04:35:53;3.30;60.30
12981;DHT22;6555;50.468;8.480;2022-11-20T04:40:59;3.30;60.20
12981;DHT22;6555;50.468;8.480;2022-11-20T04:46:02;3.30;60.40
12981;DHT22;6555;50.468;8.480;2022-11-20T04:51:05;3.30;60.50
12981;DHT22;6555;50.468;8.480;2022-11-20T04:56:11;3.30;60.60
12981;DHT22;6555;50.468;8.480;2022-11-20T05:01:16;3.30;60.60
12981;DHT22;6555;50.468;8.480;2022-11-20T05:06:21;3.30;60.60
12981;DHT22;6555;50.468;8.480;2022-11-20T05:11:25;3.30;60.80
12981;DHT22;6555;50.468;8.480;2022-11-20T05:16:30;3.40;60.70
12981;DHT22;6555;50.468;8.480;2022-11-20T05:21:33;3.40;60.60
12981;DHT22;6555;50.468;8.480;2022-11-20T05:26:38;3.40;60.60
12981;DHT22;6555;50.468;8.480;2022-11-20T05:31:41;3.40;60.70
12981;DHT22;6555;50.468;8.480;2022-11-20T05:36:44;3.50;60.50
12981;DHT22;6555;50.468;8.480;2022-11-20T05:41:48;3.40;60.30
12981;DHT22;6555;50.468;8.480;2022-11-20T05:47:12;3.40;61.10
12981;DHT22;6555;50.468;8.480;2022-11-20T05:52:15;3.40;60.60
12981;DHT22;6555;50.468;8.480;2022-11-20T05:57:19;3.40;60.50
12981;DHT22;6555;50.468;8.480;2022-11-20T06:02:22;3.40;60.60
12981;DHT22;6555;50.468;8.480;2022-11-20T06:07:25;3.30;60.60
12981;DHT22;6555;50.468;8.480;2022-11-20T06:12:31;3.40;60.70
12981;DHT22;6555;50.468;8.480;2022-11-20T06:17:34;3.40;60.80
12981;DHT22;6555;50.468;8.480;2022-11-20T06:22:37;3.40;61.00
12981;DHT22;6555;50.468;8.480;2022-11-20T06:27:41;3.50;61.20
12981;DHT22;6555;50.468;8.480;2022-11-20T06:32:44;3.50;61.20
12981;DHT22;6555;50.468;8.480;2022-11-20T06:37:47;3.60;61.10
12981;DHT22;6555;50.468;8.480;2022-11-20T06:42:53;3.60;61.20
12981;DHT22;6555;50.468;8.480;2022-11-20T06:47:57;3.70;61.20
12981;DHT22;6555;50.468;8.480;2022-11-20T06:53:01;3.70;61.00
12981;DHT22;6555;50.468;8.480;2022-11-20T06:58:06;3.70;61.10
12981;DHT22;6555;50.468;8.480;2022-11-20T07:03:11;3.70;61.10
12981;DHT22;6555;50.468;8.480;2022-11-20T07:08:14;3.70;61.00
12981;DHT22;6555;50.468;8.480;2022-11-20T07:13:18;3.70;61.00
12981;DHT22;6555;50.468;8.480;2022-11-20T07:18:21;3.80;61.00
12981;DHT22;6555;50.468;8.480;2022-11-20T07:23:24;3.80;61.00
12981;DHT22;6555;50.468;8.480;2022-11-20T07:28:29;3.80;61.00
12981;DHT22;6555;50.468;8.480;2022-11-20T07:33:32;3.80;61.00
12981;DHT22;6555;50.468;8.480;2022-11-20T07:38:37;3.80;61.00
12981;DHT22;6555;50.468;8.480;2022-11-20T07:43:41;3.90;61.10
12981;DHT22;6555;50.468;8.480;2022-11-20T07:48:44;3.80;61.10
12981;DHT22;6555;50.468;8.480;2022-11-20T07:53:47;3.90;61.20
12981;DHT22;6555;50.468;8.480;2022-11-20T07:58:51;3.90;61.20
12981;DHT22;6555;50.468;8.480;2022-11-20T08:03:54;3.90;61.30
12981;DHT22;6555;50.468;8.480;2022-11-20T08:08:57;3.90;61.10
12981;DHT22;6555;50.468;8.480;2022-11-20T08:14:01;3.90;61.30
12981;DHT22;6555;50.468;8.480;2022-11-20T08:19:18;4.00;61.20
12981;DHT22;6555;50.468;8.480;2022-11-20T08:24:21;4.00;61.20
12981;DHT22;6555;50.468;8.480;2022-11-20T08:29:26;4.00;61.20
12981;DHT22;6555;50.468;8.480;2022-11-20T08:34:29;4.00;61.30
12981;DHT22;6555;50.468;8.480;2022-11-20T08:39:32;4.10;61.40
12981;DHT22;6555;50.468;8.480;2022-11-20T08:44:37;4.10;61.50
12981;DHT22;6555;50.468;8.480;2022-11-20T08:49:40;4.10;61.40
12981;DHT22;6555;50.468;8.480;2022-11-20T08:54:43;4.20;61.30
12981;DHT22;6555;50.468;8.480;2022-11-20T08:59:47;4.20;61.30
12981;DHT22;6555;50.468;8.480;2022-11-20T09:05:08;4.20;61.40
12981;DHT22;6555;50.468;8.480;2022-11-20T09:10:11;4.30;61.60
12981;DHT22;6555;50.468;8.480;2022-11-20T09:15:31;4.30;61.60
12981;DHT22;6555;50.468;8.480;2022-11-20T09:20:34;4.40;61.70
12981;DHT22;6555;50.468;8.480;2022-11-20T09:25:37;4.40;61.80
12981;DHT22;6555;50.468;8.480;2022-11-20T09:30:41;4.50;61.90
12981;DHT22;6555;50.468;8.480;2022-11-20T09:35:44;4.60;61.80
12981;DHT22;6555;50.468;8.480;2022-11-20T09:40:52;4.60;61.80
12981;DHT22;6555;50.468;8.480;2022-11-20T09:46:08;4.70;62.00
12981;DHT22;6555;50.468;8.480;2022-11-20T09:51:26;4.70;62.00
12981;DHT22;6555;50.468;8.480;2022-11-20T09:56:31;4.80;61.90
12981;DHT22;6555;50.468;8.480;2022-11-20T10:01:37;4.90;61.90
12981;DHT22;6555;50.468;8.480;2022-11-20T10:06:47;4.90;61.90
12981;DHT22;6555;50.468;8.480;2022-11-20T10:12:14;5.00;61.90
12981;DHT22;6555;50.468;8.480;2022-11-20T10:17:31;5.00;61.70
12981;DHT22;6555;50.468;8.480;2022-11-20T10:22:46;5.00;61.70
12981;DHT22;6555;50.468;8.480;2022-11-20T10:28:16;5.00;61.70
12981;DHT22;6555;50.468;8.480;2022-11-20T10:33:24;5.10;61.90
12981;DHT22;6555;50.468;8.480;2022-11-20T10:38:53;5.10;61.80
12981;DHT22;6555;50.468;8.480;2022-11-20T10:44:02;5.10;61.80
12981;DHT22;6555;50.468;8.480;2022-11-20T10:49:13;5.10;61.70
12981;DHT22;6555;50.468;8.480;2022-11-20T10:54:22;5.10;61.70
12981;DHT22;6555;50.468;8.480;2022-11-20T10:59:45;5.00;61.60
12981;DHT22;6555;50.468;8.480;2022-11-20T11:04:53;5.00;61.90
12981;DHT22;6555;50.468;8.480;2022-11-20T11:09:57;5.00;61.90
12981;DHT22;6555;50.468;8.480;2022-11-20T11:15:00;5.00;62.00
12981;DHT22;6555;50.468;8.480;2022-11-20T11:20:17;5.00;62.00
12981;DHT22;6555;50.468;8.480;2022-11-20T11:25:38;5.10;62.20
12981;DHT22;6555;50.468;8.480;2022-11-20T11:31:03;5.10;62.20
12981;DHT22;6555;50.468;8.480;2022-11-20T11:36:22;5.20;62.20
12981;DHT22;6555;50.468;8.480;2022-11-20T11:41:37;5.20;62.20
12981;DHT22;6555;50.468;8.480;2022-11-20T11:46:57;5.30;62.30
12981;DHT22;6555;50.468;8.480;2022-11-20T11:52:17;5.40;62.30
12981;DHT22;6555;50.468;8.480;2022-11-20T11:57:57;5.40;62.20
12981;DHT22;6555;50.468;8.480;2022-11-20T12:03:19;5.40;62.00
12981;DHT22;6555;50.468;8.480;2022-11-20T12:08:50;5.40;62.10
12981;DHT22;6555;50.468;8.480;2022-11-20T12:14:20;5.50;62.40
12981;DHT22;6555;50.468;8.480;2022-11-20T12:19:43;5.50;62.40
12981;DHT22;6555;50.468;8.480;2022-11-20T12:25:08;5.60;62.20
12981;DHT22;6555;50.468;8.480;2022-11-20T12:30:33;5.60;62.20
12981;DHT22;6555;50.468;8.480;2022-11-20T12:36:44;5.60;62.20
12981;DHT22;6555;50.468;8.480;2022-11-20T12:42:53;5.60;62.20
12981;DHT22;6555;50.468;8.480;2022-11-20T12:48:44;5.70;62.30
12981;DHT22;6555;50.468;8.480;2022-11-20T13:00:22;5.80;62.60
12981;DHT22;6555;50.468;8.480;2022-11-20T13:06:13;5.90;62.50
12981;DHT22;6555;50.468;8.480;2022-11-20T13:12:46;5.90;62.50
12981;DHT22;6555;50.468;8.480;2022-11-20T13:17:41;6.00;62.40
12981;DHT22;6555;50.468;8.480;2022-11-20T13:22:49;6.00;62.30
12981;DHT22;6555;50.468;8.480;2022-11-20T13:27:53;6.00;62.20
12981;DHT22;6555;50.468;8.480;2022-11-20T13:33:02;6.00;62.30
12981;DHT22;6555;50.468;8.480;2022-11-20T13:38:08;6.10;62.30
12981;DHT22;6555;50.468;8.480;2022-11-20T13:43:19;6.10;62.30
12981;DHT22;6555;50.468;8.480;2022-11-20T13:48:25;6.10;62.30
12981;DHT22;6555;50.468;8.480;2022-11-20T13:53:43;6.10;62.20
12981;DHT22;6555;50.468;8.480;2022-11-20T13:58:56;6.10;62.40
12981;DHT22;6555;50.468;8.480;2022-11-20T14:04:08;6.10;62.50
12981;DHT22;6555;50.468;8.480;2022-11-20T14:09:23;6.20;62.60
12981;DHT22;6555;50.468;8.480;2022-11-20T14:14:28;6.20;63.20
12981;DHT22;6555;50.468;8.480;2022-11-20T14:19:32;6.20;62.50
12981;DHT22;6555;50.468;8.480;2022-11-20T14:24:35;6.20;62.40
12981;DHT22;6555;50.468;8.480;2022-11-20T14:29:39;6.20;62.30
12981;DHT22;6555;50.468;8.480;2022-11-20T14:34:46;6.20;62.30
12981;DHT22;6555;50.468;8.480;2022-11-20T14:39:52;6.30;62.60
12981;DHT22;6555;50.468;8.480;2022-11-20T14:44:57;6.30;62.70
12981;DHT22;6555;50.468;8.480;2022-11-20T14:50:02;6.30;62.80
12981;DHT22;6555;50.468;8.480;2022-11-20T14:55:13;6.40;62.60
12981;DHT22;6555;50.468;8.480;2022-11-20T15:00:28;6.40;62.60
12981;DHT22;6555;50.468;8.480;2022-11-20T15:05:47;6.40;62.60
12981;DHT22;6555;50.468;8.480;2022-11-20T15:10:51;6.40;62.80
12981;DHT22;6555;50.468;8.480;2022-11-20T15:15:58;6.50;62.50
12981;DHT22;6555;50.468;8.480;2022-11-20T15:21:07;6.50;62.50
12981;DHT22;6555;50.468;8.480;2022-11-20T15:26:15;6.50;62.60
12981;DHT22;6555;50.468;8.480;2022-11-20T15:31:22;6.50;62.50
12981;DHT22;6555;50.468;8.480;2022-11-20T15:36:27;6.50;62.50
12981;DHT22;6555;50.468;8.480;2022-11-20T15:41:30;6.50;62.50
12981;DHT22;6555;50.468;8.480;2022-11-20T15:46:36;6.50;62.40
12981;DHT22;6555;50.468;8.480;2022-11-20T15:51:44;6.50;62.50
12981;DHT22;6555;50.468;8.480;2022-11-20T15:56:48;6.50;62.50
12981;DHT22;6555;50.468;8.480;2022-11-20T16:01:51;6.50;62.50
12981;DHT22;6555;50.468;8.480;2022-11-20T16:06:55;6.50;63.20
12981;DHT22;6555;50.468;8.480;2022-11-20T16:11:59;6.50;62.50
12981;DHT22;6555;50.468;8.480;2022-11-20T16:17:02;6.50;62.50
12981;DHT22;6555;50.468;8.480;2022-11-20T16:22:09;6.40;62.40
12981;DHT22;6555;50.468;8.480;2022-11-20T16:27:13;6.50;62.50
12981;DHT22;6555;50.468;8.480;2022-11-20T16:32:16;6.40;62.30
12981;DHT22;6555;50.468;8.480;2022-11-20T16:37:20;6.40;62.20
12981;DHT22;6555;50.468;8.480;2022-11-20T16:42:24;6.40;62.30
12981;DHT22;6555;50.468;8.480;2022-11-20T16:47:27;6.40;62.30
12981;DHT22;6555;50.468;8.480;2022-11-20T16:52:31;6.30;62.20
12981;DHT22;6555;50.468;8.480;2022-11-20T16:57:34;6.30;62.30
12981;DHT22;6555;50.468;8.480;2022-11-20T17:02:38;6.30;62.30
12981;DHT22;6555;50.468;8.480;2022-11-20T17:07:42;6.30;62.30
12981;DHT22;6555;50.468;8.480;2022-11-20T17:12:46;6.30;62.30
12981;DHT22;6555;50.468;8.480;2022-11-20T17:17:49;6.20;62.20
12981;DHT22;6555;50.468;8.480;2022-11-20T17:22:53;6.20;62.20
12981;DHT22;6555;50.468;8.480;2022-11-20T17:27:56;6.20;62.30
12981;DHT22;6555;50.468;8.480;2022-11-20T17:32:59;6.10;62.30
12981;DHT22;6555;50.468;8.480;2022-11-20T17:38:04;6.10;62.30
12981;DHT22;6555;50.468;8.480;2022-11-20T17:43:07;6.10;62.40
12981;DHT22;6555;50.468;8.480;2022-11-20T17:48:10;6.00;62.50
12981;DHT22;6555;50.468;8.480;2022-11-20T17:53:15;6.00;62.60
12981;DHT22;6555;50.468;8.480;2022-11-20T17:58:18;6.00;62.70
12981;DHT22;6555;50.468;8.480;2022-11-20T18:03:23;6.00;62.80
12981;DHT22;6555;50.468;8.480;2022-11-20T18:08:28;6.10;63.10
12981;DHT22;6555;50.468;8.480;2022-11-20T18:13:31;6.10;63.10
12981;DHT22;6555;50.468;8.480;2022-11-20T18:19:00;6.20;63.20
12981;DHT22;6555;50.468;8.480;2022-11-20T18:24:03;6.30;63.40
12981;DHT22;6555;50.468;8.480;2022-11-20T18:29:07;6.30;63.60
12981;DHT22;6555;50.468;8.480;2022-11-20T18:34:11;6.40;63.60
12981;DHT22;6555;50.468;8.480;2022-11-20T18:39:15;6.60;63.90
12981;DHT22;6555;50.468;8.480;2022-11-20T18:44:19;6.70;63.90
12981;DHT22;6555;50.468;8.480;2022-11-20T18:49:42;6.80;63.80
12981;DHT22;6555;50.468;8.480;2022-11-20T18:54:46;6.90;63.90
12981;DHT22;6555;50.468;8.480;2022-11-20T18:59:49;7.00;64.00
12981;DHT22;6555;50.468;8.480;2022-11-20T19:04:55;7.10;64.20
12981;DHT22;6555;50.468;8.480;2022-11-20T19:09:58;7.20;64.40
12981;DHT22;6555;50.468;8.480;2022-11-20T19:15:06;7.30;64.30
12981;DHT22;6555;50.468;8.480;2022-11-20T19:20:11;7.40;64.40
12981;DHT22;6555;50.468;8.480;2022-11-20T19:25:14;7.50;64.50
12981;DHT22;6555;50.468;8.480;2022-11-20T19:30:17;7.50;64.60
12981;DHT22;6555;50.468;8.480;2022-11-20T19:35:22;7.60;64.50
12981;DHT22;6555;50.468;8.480;2022-11-20T19:40:25;7.70;64.60
12981;DHT22;6555;50.468;8.480;2022-11-20T19:45:28;7.60;64.50
12981;DHT22;6555;50.468;8.480;2022-11-20T19:50:33;7.70;65.30
12981;DHT22;6555;50.468;8.480;2022-11-20T19:55:36;7.70;64.50
12981;DHT22;6555;50.468;8.480;2022-11-20T20:00:39;7.70;64.50
12981;DHT22;6555;50.468;8.480;2022-11-20T20:05:44;7.80;64.50
12981;DHT22;6555;50.468;8.480;2022-11-20T20:10:48;7.80;64.60
12981;DHT22;6555;50.468;8.480;2022-11-20T20:15:54;7.80;64.80
12981;DHT22;6555;50.468;8.480;2022-11-20T20:21:03;7.80;64.90
12981;DHT22;6555;50.468;8.480;2022-11-20T20:26:08;7.90;65.10
12981;DHT22;6555;50.468;8.480;2022-11-20T20:31:13;7.90;65.10
12981;DHT22;6555;50.468;8.480;2022-11-20T20:36:21;8.00;65.20
12981;DHT22;6555;50.468;8.480;2022-11-20T20:41:24;8.00;65.20
12981;DHT22;6555;50.468;8.480;2022-11-20T20:46:27;8.00;65.10
12981;DHT22;6555;50.468;8.480;2022-11-20T20:51:32;8.10;65.40
12981;DHT22;6555;50.468;8.480;2022-11-20T20:56:36;8.10;65.40
12981;DHT22;6555;50.468;8.480;2022-11-20T21:01:39;8.20;65.30
12981;DHT22;6555;50.468;8.480;2022-11-20T21:06:43;8.20;65.30
12981;DHT22;6555;50.468;8.480;2022-11-20T21:11:46;8.30;65.30
12981;DHT22;6555;50.468;8.480;2022-11-20T21:16:51;8.30;65.30
12981;DHT22;6555;50.468;8.480;2022-11-20T21:21:55;8.30;65.30
12981;DHT22;6555;50.468;8.480;2022-11-20T21:27:03;8.40;65.30
12981;DHT22;6555;50.468;8.480;2022-11-20T21:32:06;8.40;65.30
12981;DHT22;6555;50.468;8.480;2022-11-20T21:37:10;8.40;65.40
12981;DHT22;6555;50.468;8.480;2022-11-20T21:42:13;8.50;65.20
12981;DHT22;6555;50.468;8.480;2022-11-20T21:47:16;8.50;65.20
12981;DHT22;6555;50.468;8.480;2022-11-20T21:52:20;8.50;65.20
12981;DHT22;6555;50.468;8.480;2022-11-20T21:57:23;8.50;65.10
12981;DHT22;6555;50.468;8.480;2022-11-20T22:02:26;8.50;65.20
12981;DHT22;6555;50.468;8.480;2022-11-20T22:07:31;8.50;65.10
12981;DHT22;6555;50.468;8.480;2022-11-20T22:12:34;8.50;65.10
12981;DHT22;6555;50.468;8.480;2022-11-20T22:17:37;8.50;65.00
12981;DHT22;6555;50.468;8.480;2022-11-20T22:22:58;8.50;65.00
12981;DHT22;6555;50.468;8.480;2022-11-20T22:28:01;8.50;65.10
12981;DHT22;6555;50.468;8.480;2022-11-20T22:33:04;8.50;65.10
12981;DHT22;6555;50.468;8.480;2022-11-20T22:38:15;8.50;65.10
12981;DHT22;6555;50.468;8.480;2022-11-20T22:43:18;8.50;65.10
12981;DHT22;6555;50.468;8.480;2022-11-20T22:48:21;8.60;65.00
12981;DHT22;6555;50.468;8.480;2022-11-20T22:53:26;8.60;64.90
12981;DHT22;6555;50.468;8.480;2022-11-20T22:58:29;8.60;64.90
12981;DHT22;6555;50.468;8.480;2022-11-20T23:03:32;8.60;64.80
12981;DHT22;6555;50.468;8.480;2022-11-20T23:08:37;8.60;64.80
12981;DHT22;6555;50.468;8.480;2022-11-20T23:13:42;8.60;64.60
12981;DHT22;6555;50.468;8.480;2022-11-20T23:18:45;8.60;64.50
12981;DHT22;6555;50.468;8.480;2022-11-20T23:23:51;8.60;64.50
12981;DHT22;6555;50.468;8.480;2022-11-20T23:28:55;8.60;64.40
12981;DHT22;6555;50.468;8.480;2022-11-20T23:33:59;8.60;64.40
12981;DHT22;6555;50.468;8.480;2022-11-20T23:39:03;8.60;64.40
12981;DHT22;6555;50.468;8.480;2022-11-20T23:44:06;8.50;64.30
12981;DHT22;6555;50.468;8.480;2022-11-20T23:49:09;8.50;64.30
12981;DHT22;6555;50.468;8.480;2022-11-20T23:54:14;8.50;64.30
12981;DHT22;6555;50.468;8.480;2022-11-20T23:59:17;8.50;64.30
